Terminal Aerodrome Forecast
Issued by NWS Melbourne, FL

Home | Current Version | Previous Version | Text Only | Print | Product List | Glossary On
Versions: 1 2 3 4 5 6 7 8 9 10 11 12 13 14 15 16 17 18 19 20
000
FTUS42 KMLB 021100
TAFVRB
TAF
KVRB 021137Z 0212/0312 VRB02KT 6SM BR SCT002
      TEMPO 0212/0213 1SM BR BKN002
     FM021400 34005KT P6SM SCT025
     FM021800 04009KT P6SM FEW035 SCT120 BKN250
     FM030000 02003KT P6SM FEW120 SCT250=

USA.gov is the U.S. government's official web portal to all federal, state and local government web resources and services.